sensor_id;sensor_type;location;lat;lon;timestamp;temperature;humidity
11132;DHT22;5620;53.570;9.718;2023-04-30T00:00:44;5.70;99.90
11132;DHT22;5620;53.570;9.718;2023-04-30T00:03:13;5.70;99.90
11132;DHT22;5620;53.570;9.718;2023-04-30T00:05:38;5.60;99.90
11132;DHT22;5620;53.570;9.718;2023-04-30T00:08:07;5.70;1.00
11132;DHT22;5620;53.570;9.718;2023-04-30T00:10:33;5.70;1.00
11132;DHT22;5620;53.570;9.718;2023-04-30T00:12:59;5.70;1.00
11132;DHT22;5620;53.570;9.718;2023-04-30T00:15:25;5.70;1.00
11132;DHT22;5620;53.570;9.718;2023-04-30T00:17:52;5.60;1.00
11132;DHT22;5620;53.570;9.718;2023-04-30T00:20:18;5.60;1.00
11132;DHT22;5620;53.570;9.718;2023-04-30T00:22:43;5.60;1.00
11132;DHT22;5620;53.570;9.718;2023-04-30T00:25:09;5.60;1.00
11132;DHT22;5620;53.570;9.718;2023-04-30T00:27:36;5.60;1.00
11132;DHT22;5620;53.570;9.718;2023-04-30T00:30:02;5.50;1.00
11132;DHT22;5620;53.570;9.718;2023-04-30T00:32:28;5.50;1.00
11132;DHT22;5620;53.570;9.718;2023-04-30T00:34:55;5.50;1.00
11132;DHT22;5620;53.570;9.718;2023-04-30T00:37:22;5.50;1.00
11132;DHT22;5620;53.570;9.718;2023-04-30T00:39:47;5.50;1.00
11132;DHT22;5620;53.570;9.718;2023-04-30T00:42:13;5.50;1.00
11132;DHT22;5620;53.570;9.718;2023-04-30T00:44:39;5.40;1.00
11132;DHT22;5620;53.570;9.718;2023-04-30T00:47:07;5.40;1.00
11132;DHT22;5620;53.570;9.718;2023-04-30T00:49:34;5.40;1.00
11132;DHT22;5620;53.570;9.718;2023-04-30T00:52:01;5.30;1.00
11132;DHT22;5620;53.570;9.718;2023-04-30T00:54:28;5.30;1.00
11132;DHT22;5620;53.570;9.718;2023-04-30T00:56:53;5.20;1.00
11132;DHT22;5620;53.570;9.718;2023-04-30T00:59:19;5.20;1.00
11132;DHT22;5620;53.570;9.718;2023-04-30T01:01:47;5.20;1.00
11132;DHT22;5620;53.570;9.718;2023-04-30T01:04:13;5.20;1.00
11132;DHT22;5620;53.570;9.718;2023-04-30T01:06:41;5.10;1.00
11132;DHT22;5620;53.570;9.718;2023-04-30T01:09:07;5.10;1.00
11132;DHT22;5620;53.570;9.718;2023-04-30T01:17:50;5.00;1.00
11132;DHT22;5620;53.570;9.718;2023-04-30T01:20:31;4.90;1.00
11132;DHT22;5620;53.570;9.718;2023-04-30T01:26:19;4.80;1.00
11132;DHT22;5620;53.570;9.718;2023-04-30T01:28:45;4.80;1.00
11132;DHT22;5620;53.570;9.718;2023-04-30T01:31:17;4.70;1.00
11132;DHT22;5620;53.570;9.718;2023-04-30T01:33:46;4.70;1.00
11132;DHT22;5620;53.570;9.718;2023-04-30T01:44:53;4.60;1.00
11132;DHT22;5620;53.570;9.718;2023-04-30T01:47:45;4.60;1.00
11132;DHT22;5620;53.570;9.718;2023-04-30T01:50:43;4.50;1.00
11132;DHT22;5620;53.570;9.718;2023-04-30T01:53:20;4.50;1.00
11132;DHT22;5620;53.570;9.718;2023-04-30T01:55:54;4.50;1.00
11132;DHT22;5620;53.570;9.718;2023-04-30T01:58:23;4.40;1.00
11132;DHT22;5620;53.570;9.718;2023-04-30T02:00:50;4.40;1.00
11132;DHT22;5620;53.570;9.718;2023-04-30T02:03:15;4.40;1.00
11132;DHT22;5620;53.570;9.718;2023-04-30T02:05:41;4.50;1.00
11132;DHT22;5620;53.570;9.718;2023-04-30T02:08:11;4.50;1.00
11132;DHT22;5620;53.570;9.718;2023-04-30T02:10:41;4.50;1.00
11132;DHT22;5620;53.570;9.718;2023-04-30T02:13:08;4.40;1.00
11132;DHT22;5620;53.570;9.718;2023-04-30T02:15:34;4.40;1.00
11132;DHT22;5620;53.570;9.718;2023-04-30T02:17:59;4.40;1.00
11132;DHT22;5620;53.570;9.718;2023-04-30T02:20:26;4.40;1.00
11132;DHT22;5620;53.570;9.718;2023-04-30T02:22:52;4.40;1.00
11132;DHT22;5620;53.570;9.718;2023-04-30T02:25:17;4.50;1.00
11132;DHT22;5620;53.570;9.718;2023-04-30T02:27:44;4.40;1.00
11132;DHT22;5620;53.570;9.718;2023-04-30T02:30:10;4.40;1.00
11132;DHT22;5620;53.570;9.718;2023-04-30T02:32:38;4.40;1.00
11132;DHT22;5620;53.570;9.718;2023-04-30T02:35:05;4.40;1.00
11132;DHT22;5620;53.570;9.718;2023-04-30T02:37:31;4.40;1.00
11132;DHT22;5620;53.570;9.718;2023-04-30T02:39:56;4.40;1.00
11132;DHT22;5620;53.570;9.718;2023-04-30T02:42:23;4.50;1.00
11132;DHT22;5620;53.570;9.718;2023-04-30T02:44:50;4.50;1.00
11132;DHT22;5620;53.570;9.718;2023-04-30T02:47:15;4.60;1.00
11132;DHT22;5620;53.570;9.718;2023-04-30T02:49:42;4.60;1.00
11132;DHT22;5620;53.570;9.718;2023-04-30T02:52:09;4.60;1.00
11132;DHT22;5620;53.570;9.718;2023-04-30T02:54:36;4.70;1.00
11132;DHT22;5620;53.570;9.718;2023-04-30T02:57:02;4.70;1.00
11132;DHT22;5620;53.570;9.718;2023-04-30T02:59:29;4.70;1.00
11132;DHT22;5620;53.570;9.718;2023-04-30T03:01:55;4.80;1.00
11132;DHT22;5620;53.570;9.718;2023-04-30T03:04:21;4.90;1.00
11132;DHT22;5620;53.570;9.718;2023-04-30T03:06:51;4.90;1.00
11132;DHT22;5620;53.570;9.718;2023-04-30T03:09:18;5.00;1.00
11132;DHT22;5620;53.570;9.718;2023-04-30T03:11:43;5.00;1.00
11132;DHT22;5620;53.570;9.718;2023-04-30T03:14:10;5.10;1.00
11132;DHT22;5620;53.570;9.718;2023-04-30T03:16:37;5.20;1.00
11132;DHT22;5620;53.570;9.718;2023-04-30T03:19:02;5.30;1.00
11132;DHT22;5620;53.570;9.718;2023-04-30T03:21:32;5.30;1.00
11132;DHT22;5620;53.570;9.718;2023-04-30T03:24:00;5.30;1.00
11132;DHT22;5620;53.570;9.718;2023-04-30T03:26:27;5.40;1.00
11132;DHT22;5620;53.570;9.718;2023-04-30T03:28:54;5.50;1.00
11132;DHT22;5620;53.570;9.718;2023-04-30T03:31:19;5.50;1.00
11132;DHT22;5620;53.570;9.718;2023-04-30T03:33:46;5.50;1.00
11132;DHT22;5620;53.570;9.718;2023-04-30T03:36:13;5.50;4.30
11132;DHT22;5620;53.570;9.718;2023-04-30T03:38:40;5.50;10.00
11132;DHT22;5620;53.570;9.718;2023-04-30T03:41:07;5.60;20.40
11132;DHT22;5620;53.570;9.718;2023-04-30T03:43:32;5.70;28.70
11132;DHT22;5620;53.570;9.718;2023-04-30T03:45:58;5.70;37.40
11132;DHT22;5620;53.570;9.718;2023-04-30T03:48:25;5.90;39.80
11132;DHT22;5620;53.570;9.718;2023-04-30T03:50:51;5.90;44.30
11132;DHT22;5620;53.570;9.718;2023-04-30T03:53:17;6.00;43.70
11132;DHT22;5620;53.570;9.718;2023-04-30T03:55:43;6.00;40.30
11132;DHT22;5620;53.570;9.718;2023-04-30T03:58:08;6.00;44.30
11132;DHT22;5620;53.570;9.718;2023-04-30T04:00:34;6.10;57.70
11132;DHT22;5620;53.570;9.718;2023-04-30T04:03:04;6.20;58.40
11132;DHT22;5620;53.570;9.718;2023-04-30T04:05:29;6.40;58.10
11132;DHT22;5620;53.570;9.718;2023-04-30T04:07:58;6.20;57.20
11132;DHT22;5620;53.570;9.718;2023-04-30T04:10:24;6.20;58.20
11132;DHT22;5620;53.570;9.718;2023-04-30T04:12:50;6.20;58.00
11132;DHT22;5620;53.570;9.718;2023-04-30T04:15:15;6.20;59.30
11132;DHT22;5620;53.570;9.718;2023-04-30T04:17:43;6.30;61.20
11132;DHT22;5620;53.570;9.718;2023-04-30T04:20:10;6.30;63.20
11132;DHT22;5620;53.570;9.718;2023-04-30T04:22:37;6.30;64.70
11132;DHT22;5620;53.570;9.718;2023-04-30T04:25:02;6.40;62.40
11132;DHT22;5620;53.570;9.718;2023-04-30T04:27:28;6.40;61.50
11132;DHT22;5620;53.570;9.718;2023-04-30T04:29:53;6.40;59.60
11132;DHT22;5620;53.570;9.718;2023-04-30T04:32:20;6.40;58.40
11132;DHT22;5620;53.570;9.718;2023-04-30T04:34:46;6.40;59.30
11132;DHT22;5620;53.570;9.718;2023-04-30T04:37:13;6.40;61.00
11132;DHT22;5620;53.570;9.718;2023-04-30T04:39:38;6.40;60.40
11132;DHT22;5620;53.570;9.718;2023-04-30T04:42:04;6.50;59.30
11132;DHT22;5620;53.570;9.718;2023-04-30T04:44:29;6.50;58.30
11132;DHT22;5620;53.570;9.718;2023-04-30T04:46:55;6.60;58.50
11132;DHT22;5620;53.570;9.718;2023-04-30T04:49:20;6.60;59.00
11132;DHT22;5620;53.570;9.718;2023-04-30T04:51:48;6.60;58.40
11132;DHT22;5620;53.570;9.718;2023-04-30T04:54:15;6.60;57.60
11132;DHT22;5620;53.570;9.718;2023-04-30T04:56:43;6.60;58.30
11132;DHT22;5620;53.570;9.718;2023-04-30T04:59:08;6.60;57.70
11132;DHT22;5620;53.570;9.718;2023-04-30T05:01:36;6.70;58.70
11132;DHT22;5620;53.570;9.718;2023-04-30T05:04:01;6.80;46.30
11132;DHT22;5620;53.570;9.718;2023-04-30T05:06:27;6.90;35.50
11132;DHT22;5620;53.570;9.718;2023-04-30T05:08:54;6.90;36.60
11132;DHT22;5620;53.570;9.718;2023-04-30T05:11:20;6.90;38.90
11132;DHT22;5620;53.570;9.718;2023-04-30T05:13:46;6.90;39.00
11132;DHT22;5620;53.570;9.718;2023-04-30T05:16:13;7.00;41.90
11132;DHT22;5620;53.570;9.718;2023-04-30T05:18:41;7.10;43.90
11132;DHT22;5620;53.570;9.718;2023-04-30T05:21:08;7.40;58.90
11132;DHT22;5620;53.570;9.718;2023-04-30T05:23:33;7.70;27.20
11132;DHT22;5620;53.570;9.718;2023-04-30T05:26:01;8.00;21.70
11132;DHT22;5620;53.570;9.718;2023-04-30T05:28:26;8.30;1.00
11132;DHT22;5620;53.570;9.718;2023-04-30T05:30:53;8.30;1.00
11132;DHT22;5620;53.570;9.718;2023-04-30T05:33:20;8.30;1.00
11132;DHT22;5620;53.570;9.718;2023-04-30T05:35:46;8.30;1.00
11132;DHT22;5620;53.570;9.718;2023-04-30T05:38:14;8.30;1.00
11132;DHT22;5620;53.570;9.718;2023-04-30T05:40:40;8.40;1.00
11132;DHT22;5620;53.570;9.718;2023-04-30T05:43:05;8.40;1.00
11132;DHT22;5620;53.570;9.718;2023-04-30T05:45:31;8.30;1.00
11132;DHT22;5620;53.570;9.718;2023-04-30T05:47:59;8.40;1.00
11132;DHT22;5620;53.570;9.718;2023-04-30T05:50:26;8.40;1.00
11132;DHT22;5620;53.570;9.718;2023-04-30T05:52:51;8.40;1.00
11132;DHT22;5620;53.570;9.718;2023-04-30T05:55:17;8.40;1.00
11132;DHT22;5620;53.570;9.718;2023-04-30T05:57:44;8.40;1.00
11132;DHT22;5620;53.570;9.718;2023-04-30T06:00:10;8.50;1.00
11132;DHT22;5620;53.570;9.718;2023-04-30T06:02:37;8.50;1.00
11132;DHT22;5620;53.570;9.718;2023-04-30T06:05:03;8.60;1.00
11132;DHT22;5620;53.570;9.718;2023-04-30T06:07:29;8.70;1.00
11132;DHT22;5620;53.570;9.718;2023-04-30T06:09:55;8.80;1.00
11132;DHT22;5620;53.570;9.718;2023-04-30T06:12:21;8.90;1.00
11132;DHT22;5620;53.570;9.718;2023-04-30T06:14:46;9.00;1.00
11132;DHT22;5620;53.570;9.718;2023-04-30T06:17:13;9.10;1.00
11132;DHT22;5620;53.570;9.718;2023-04-30T06:19:40;9.20;1.00
11132;DHT22;5620;53.570;9.718;2023-04-30T06:22:07;9.30;1.00
11132;DHT22;5620;53.570;9.718;2023-04-30T06:24:34;9.20;1.00
11132;DHT22;5620;53.570;9.718;2023-04-30T06:27:03;9.20;1.00
11132;DHT22;5620;53.570;9.718;2023-04-30T06:29:30;9.30;1.00
11132;DHT22;5620;53.570;9.718;2023-04-30T06:31:56;9.40;1.00
11132;DHT22;5620;53.570;9.718;2023-04-30T06:34:21;9.40;1.00
11132;DHT22;5620;53.570;9.718;2023-04-30T06:36:47;9.40;1.00
11132;DHT22;5620;53.570;9.718;2023-04-30T06:39:14;9.50;1.00
11132;DHT22;5620;53.570;9.718;2023-04-30T06:41:41;9.50;1.00
11132;DHT22;5620;53.570;9.718;2023-04-30T06:44:10;9.50;1.00
11132;DHT22;5620;53.570;9.718;2023-04-30T06:46:42;9.60;1.00
11132;DHT22;5620;53.570;9.718;2023-04-30T06:49:09;9.70;1.00
11132;DHT22;5620;53.570;9.718;2023-04-30T06:51:35;9.70;1.00
11132;DHT22;5620;53.570;9.718;2023-04-30T06:54:02;9.80;1.00
11132;DHT22;5620;53.570;9.718;2023-04-30T06:56:28;9.90;1.00
11132;DHT22;5620;53.570;9.718;2023-04-30T06:58:55;9.90;1.00
11132;DHT22;5620;53.570;9.718;2023-04-30T07:01:22;10.00;1.00
11132;DHT22;5620;53.570;9.718;2023-04-30T07:03:50;10.00;1.00
11132;DHT22;5620;53.570;9.718;2023-04-30T07:06:16;10.30;1.00
11132;DHT22;5620;53.570;9.718;2023-04-30T07:08:41;10.40;99.90
11132;DHT22;5620;53.570;9.718;2023-04-30T07:11:07;10.50;99.90
11132;DHT22;5620;53.570;9.718;2023-04-30T07:13:33;10.70;99.90
11132;DHT22;5620;53.570;9.718;2023-04-30T07:15:58;10.90;99.90
11132;DHT22;5620;53.570;9.718;2023-04-30T07:18:25;11.20;99.90
11132;DHT22;5620;53.570;9.718;2023-04-30T07:20:53;11.20;99.90
11132;DHT22;5620;53.570;9.718;2023-04-30T07:23:20;11.10;99.90
11132;DHT22;5620;53.570;9.718;2023-04-30T07:25:45;11.10;99.90
11132;DHT22;5620;53.570;9.718;2023-04-30T07:28:12;11.10;99.90
11132;DHT22;5620;53.570;9.718;2023-04-30T07:30:39;11.40;99.90
11132;DHT22;5620;53.570;9.718;2023-04-30T07:33:05;11.70;99.90
11132;DHT22;5620;53.570;9.718;2023-04-30T07:35:31;11.70;99.90
11132;DHT22;5620;53.570;9.718;2023-04-30T07:37:57;11.70;99.90
11132;DHT22;5620;53.570;9.718;2023-04-30T07:40:25;11.80;99.90
11132;DHT22;5620;53.570;9.718;2023-04-30T07:42:51;11.80;99.90
11132;DHT22;5620;53.570;9.718;2023-04-30T07:45:18;11.60;99.90
11132;DHT22;5620;53.570;9.718;2023-04-30T07:47:46;11.30;99.90
11132;DHT22;5620;53.570;9.718;2023-04-30T07:50:12;11.40;99.90
11132;DHT22;5620;53.570;9.718;2023-04-30T07:52:38;11.70;99.90
11132;DHT22;5620;53.570;9.718;2023-04-30T07:55:03;12.00;99.90
11132;DHT22;5620;53.570;9.718;2023-04-30T07:57:29;12.40;99.90
11132;DHT22;5620;53.570;9.718;2023-04-30T07:59:56;12.60;99.90
11132;DHT22;5620;53.570;9.718;2023-04-30T08:02:22;13.00;99.90
11132;DHT22;5620;53.570;9.718;2023-04-30T08:04:47;13.30;99.90
11132;DHT22;5620;53.570;9.718;2023-04-30T08:07:15;13.50;99.90
11132;DHT22;5620;53.570;9.718;2023-04-30T08:09:41;13.40;99.10
11132;DHT22;5620;53.570;9.718;2023-04-30T08:12:09;13.40;98.10
11132;DHT22;5620;53.570;9.718;2023-04-30T08:14:37;13.30;97.50
11132;DHT22;5620;53.570;9.718;2023-04-30T08:17:02;13.20;99.90
11132;DHT22;5620;53.570;9.718;2023-04-30T08:19:28;13.20;96.00
11132;DHT22;5620;53.570;9.718;2023-04-30T08:21:54;12.90;99.50
11132;DHT22;5620;53.570;9.718;2023-04-30T08:24:20;12.70;94.20
11132;DHT22;5620;53.570;9.718;2023-04-30T08:26:46;12.30;94.30
11132;DHT22;5620;53.570;9.718;2023-04-30T08:29:12;11.80;94.20
11132;DHT22;5620;53.570;9.718;2023-04-30T08:31:39;11.40;94.40
11132;DHT22;5620;53.570;9.718;2023-04-30T08:34:06;11.10;94.80
11132;DHT22;5620;53.570;9.718;2023-04-30T08:36:33;11.00;95.00
11132;DHT22;5620;53.570;9.718;2023-04-30T08:39:00;11.10;94.50
11132;DHT22;5620;53.570;9.718;2023-04-30T08:41:26;11.20;94.70
11132;DHT22;5620;53.570;9.718;2023-04-30T08:44:00;11.40;94.10
11132;DHT22;5620;53.570;9.718;2023-04-30T08:46:30;11.40;93.80
11132;DHT22;5620;53.570;9.718;2023-04-30T08:48:56;11.50;93.70
11132;DHT22;5620;53.570;9.718;2023-04-30T08:51:25;11.60;93.60
11132;DHT22;5620;53.570;9.718;2023-04-30T08:53:57;11.60;93.40
11132;DHT22;5620;53.570;9.718;2023-04-30T08:56:22;11.70;93.60
11132;DHT22;5620;53.570;9.718;2023-04-30T08:58:48;11.70;93.30
11132;DHT22;5620;53.570;9.718;2023-04-30T09:01:15;11.80;93.00
11132;DHT22;5620;53.570;9.718;2023-04-30T09:03:47;11.80;92.90
11132;DHT22;5620;53.570;9.718;2023-04-30T09:06:17;11.80;92.60
11132;DHT22;5620;53.570;9.718;2023-04-30T09:08:49;11.90;92.50
11132;DHT22;5620;53.570;9.718;2023-04-30T09:11:33;11.80;92.20
11132;DHT22;5620;53.570;9.718;2023-04-30T09:14:00;11.90;92.00
11132;DHT22;5620;53.570;9.718;2023-04-30T09:16:27;12.00;91.40
11132;DHT22;5620;53.570;9.718;2023-04-30T09:18:58;12.00;91.20
11132;DHT22;5620;53.570;9.718;2023-04-30T09:21:36;11.90;90.70
11132;DHT22;5620;53.570;9.718;2023-04-30T09:24:05;12.00;91.00
11132;DHT22;5620;53.570;9.718;2023-04-30T09:26:33;12.00;90.80
11132;DHT22;5620;53.570;9.718;2023-04-30T09:29:00;12.00;90.60
11132;DHT22;5620;53.570;9.718;2023-04-30T09:31:27;12.10;90.20
11132;DHT22;5620;53.570;9.718;2023-04-30T09:33:54;12.10;89.20
11132;DHT22;5620;53.570;9.718;2023-04-30T09:36:20;12.10;88.10
11132;DHT22;5620;53.570;9.718;2023-04-30T09:38:47;12.00;87.50
11132;DHT22;5620;53.570;9.718;2023-04-30T09:41:24;12.00;87.90
11132;DHT22;5620;53.570;9.718;2023-04-30T09:43:50;12.00;88.30
11132;DHT22;5620;53.570;9.718;2023-04-30T09:46:18;11.90;88.60
11132;DHT22;5620;53.570;9.718;2023-04-30T09:48:46;12.00;88.50
11132;DHT22;5620;53.570;9.718;2023-04-30T09:51:11;12.00;88.20
11132;DHT22;5620;53.570;9.718;2023-04-30T09:53:37;12.20;87.30
11132;DHT22;5620;53.570;9.718;2023-04-30T09:56:06;12.40;86.90
11132;DHT22;5620;53.570;9.718;2023-04-30T09:58:38;12.60;85.70
11132;DHT22;5620;53.570;9.718;2023-04-30T10:01:11;12.80;84.30
11132;DHT22;5620;53.570;9.718;2023-04-30T10:03:41;13.00;83.80
11132;DHT22;5620;53.570;9.718;2023-04-30T10:06:12;13.10;81.90
11132;DHT22;5620;53.570;9.718;2023-04-30T10:08:45;13.30;81.00
11132;DHT22;5620;53.570;9.718;2023-04-30T10:11:17;13.50;79.40
11132;DHT22;5620;53.570;9.718;2023-04-30T10:14:02;13.60;78.30
11132;DHT22;5620;53.570;9.718;2023-04-30T10:19:06;13.90;75.10
11132;DHT22;5620;53.570;9.718;2023-04-30T10:21:38;13.80;73.10
11132;DHT22;5620;53.570;9.718;2023-04-30T10:24:08;13.70;72.10
11132;DHT22;5620;53.570;9.718;2023-04-30T10:26:34;13.80;70.40
11132;DHT22;5620;53.570;9.718;2023-04-30T10:29:01;13.90;68.40
11132;DHT22;5620;53.570;9.718;2023-04-30T10:31:28;14.20;66.10
11132;DHT22;5620;53.570;9.718;2023-04-30T10:36:57;14.10;61.00
11132;DHT22;5620;53.570;9.718;2023-04-30T10:39:26;14.30;57.10
11132;DHT22;5620;53.570;9.718;2023-04-30T10:42:02;14.50;54.80
11132;DHT22;5620;53.570;9.718;2023-04-30T10:44:37;14.60;51.00
11132;DHT22;5620;53.570;9.718;2023-04-30T10:47:05;14.60;47.50
11132;DHT22;5620;53.570;9.718;2023-04-30T10:49:34;14.90;44.90
11132;DHT22;5620;53.570;9.718;2023-04-30T10:52:01;15.30;42.60
11132;DHT22;5620;53.570;9.718;2023-04-30T10:54:33;15.60;38.90
11132;DHT22;5620;53.570;9.718;2023-04-30T10:57:18;16.00;31.70
11132;DHT22;5620;53.570;9.718;2023-04-30T11:02:42;17.50;14.00
11132;DHT22;5620;53.570;9.718;2023-04-30T11:05:16;18.50;6.60
11132;DHT22;5620;53.570;9.718;2023-04-30T11:10:56;21.10;1.00
11132;DHT22;5620;53.570;9.718;2023-04-30T11:13:25;23.40;1.00
11132;DHT22;5620;53.570;9.718;2023-04-30T11:15:54;25.10;1.00
11132;DHT22;5620;53.570;9.718;2023-04-30T11:18:26;26.40;1.00
11132;DHT22;5620;53.570;9.718;2023-04-30T11:20:52;28.00;1.00
11132;DHT22;5620;53.570;9.718;2023-04-30T11:23:22;29.20;1.00
11132;DHT22;5620;53.570;9.718;2023-04-30T11:25:48;29.50;1.00
11132;DHT22;5620;53.570;9.718;2023-04-30T11:28:24;29.90;1.00
11132;DHT22;5620;53.570;9.718;2023-04-30T11:31:08;30.50;1.00
11132;DHT22;5620;53.570;9.718;2023-04-30T11:33:35;31.30;1.00
11132;DHT22;5620;53.570;9.718;2023-04-30T11:36:03;31.40;1.00
11132;DHT22;5620;53.570;9.718;2023-04-30T11:38:35;32.10;1.00
11132;DHT22;5620;53.570;9.718;2023-04-30T11:41:02;32.60;1.00
11132;DHT22;5620;53.570;9.718;2023-04-30T11:43:30;32.30;1.00
11132;DHT22;5620;53.570;9.718;2023-04-30T11:46:14;32.00;1.00
11132;DHT22;5620;53.570;9.718;2023-04-30T11:48:42;32.40;1.00
11132;DHT22;5620;53.570;9.718;2023-04-30T11:51:21;32.80;1.00
11132;DHT22;5620;53.570;9.718;2023-04-30T11:53:49;33.50;1.00
11132;DHT22;5620;53.570;9.718;2023-04-30T11:56:19;33.20;1.00
11132;DHT22;5620;53.570;9.718;2023-04-30T11:58:49;33.50;1.00
11132;DHT22;5620;53.570;9.718;2023-04-30T12:01:17;33.00;1.00
11132;DHT22;5620;53.570;9.718;2023-04-30T12:03:46;32.60;1.00
11132;DHT22;5620;53.570;9.718;2023-04-30T12:06:24;32.20;1.00
11132;DHT22;5620;53.570;9.718;2023-04-30T12:08:56;32.70;1.00
11132;DHT22;5620;53.570;9.718;2023-04-30T12:11:30;33.30;1.00
11132;DHT22;5620;53.570;9.718;2023-04-30T12:14:08;34.40;1.00
11132;DHT22;5620;53.570;9.718;2023-04-30T12:16:53;35.30;1.00
11132;DHT22;5620;53.570;9.718;2023-04-30T12:19:21;35.90;1.00
11132;DHT22;5620;53.570;9.718;2023-04-30T12:21:47;36.30;1.00
11132;DHT22;5620;53.570;9.718;2023-04-30T12:24:24;36.50;1.00
11132;DHT22;5620;53.570;9.718;2023-04-30T12:26:52;36.70;1.00
11132;DHT22;5620;53.570;9.718;2023-04-30T12:29:18;37.10;1.00
11132;DHT22;5620;53.570;9.718;2023-04-30T12:31:48;37.40;1.00
11132;DHT22;5620;53.570;9.718;2023-04-30T12:34:16;38.10;1.00
11132;DHT22;5620;53.570;9.718;2023-04-30T12:36:41;38.70;1.00
11132;DHT22;5620;53.570;9.718;2023-04-30T12:39:12;39.30;1.00
11132;DHT22;5620;53.570;9.718;2023-04-30T12:41:46;39.60;1.00
11132;DHT22;5620;53.570;9.718;2023-04-30T12:44:30;39.90;1.00
11132;DHT22;5620;53.570;9.718;2023-04-30T12:46:58;40.40;1.00
11132;DHT22;5620;53.570;9.718;2023-04-30T12:49:38;40.00;1.00
11132;DHT22;5620;53.570;9.718;2023-04-30T12:54:52;38.10;1.00
11132;DHT22;5620;53.570;9.718;2023-04-30T12:57:22;38.20;1.00
11132;DHT22;5620;53.570;9.718;2023-04-30T13:02:21;38.80;1.00
11132;DHT22;5620;53.570;9.718;2023-04-30T13:04:48;38.10;1.00
11132;DHT22;5620;53.570;9.718;2023-04-30T13:07:16;38.10;1.00
11132;DHT22;5620;53.570;9.718;2023-04-30T13:09:42;38.20;1.00
11132;DHT22;5620;53.570;9.718;2023-04-30T13:12:09;38.20;1.00
11132;DHT22;5620;53.570;9.718;2023-04-30T13:14:36;38.30;1.00
11132;DHT22;5620;53.570;9.718;2023-04-30T13:17:05;38.10;1.00
11132;DHT22;5620;53.570;9.718;2023-04-30T13:19:33;37.80;1.00
11132;DHT22;5620;53.570;9.718;2023-04-30T13:22:03;38.20;1.00
11132;DHT22;5620;53.570;9.718;2023-04-30T13:24:34;38.70;1.00
11132;DHT22;5620;53.570;9.718;2023-04-30T13:27:00;38.80;1.00
11132;DHT22;5620;53.570;9.718;2023-04-30T13:29:27;38.30;1.00
11132;DHT22;5620;53.570;9.718;2023-04-30T13:31:52;37.70;1.00
11132;DHT22;5620;53.570;9.718;2023-04-30T13:34:20;37.90;1.00
11132;DHT22;5620;53.570;9.718;2023-04-30T13:36:45;38.00;1.00
11132;DHT22;5620;53.570;9.718;2023-04-30T13:39:14;38.10;1.00
11132;DHT22;5620;53.570;9.718;2023-04-30T13:41:42;38.10;1.00
11132;DHT22;5620;53.570;9.718;2023-04-30T13:44:07;37.30;1.00
11132;DHT22;5620;53.570;9.718;2023-04-30T13:46:33;37.20;1.00
11132;DHT22;5620;53.570;9.718;2023-04-30T13:48:59;37.30;1.00
11132;DHT22;5620;53.570;9.718;2023-04-30T13:51:25;38.20;1.00
11132;DHT22;5620;53.570;9.718;2023-04-30T13:53:52;38.90;1.00
11132;DHT22;5620;53.570;9.718;2023-04-30T13:56:18;39.10;1.00
11132;DHT22;5620;53.570;9.718;2023-04-30T13:58:45;39.90;1.00
11132;DHT22;5620;53.570;9.718;2023-04-30T14:01:10;41.00;1.00
11132;DHT22;5620;53.570;9.718;2023-04-30T14:03:37;41.40;1.00
11132;DHT22;5620;53.570;9.718;2023-04-30T14:06:03;41.40;1.00
11132;DHT22;5620;53.570;9.718;2023-04-30T14:08:29;41.40;1.00
11132;DHT22;5620;53.570;9.718;2023-04-30T14:10:55;42.10;1.00
11132;DHT22;5620;53.570;9.718;2023-04-30T14:13:24;42.30;1.00
11132;DHT22;5620;53.570;9.718;2023-04-30T14:15:50;42.90;1.00
11132;DHT22;5620;53.570;9.718;2023-04-30T14:18:17;43.20;1.00
11132;DHT22;5620;53.570;9.718;2023-04-30T14:20:44;42.90;1.00
11132;DHT22;5620;53.570;9.718;2023-04-30T14:23:11;43.10;1.00
11132;DHT22;5620;53.570;9.718;2023-04-30T14:25:38;43.30;1.00
11132;DHT22;5620;53.570;9.718;2023-04-30T14:28:05;43.00;1.00
11132;DHT22;5620;53.570;9.718;2023-04-30T14:30:30;42.90;1.00
11132;DHT22;5620;53.570;9.718;2023-04-30T14:32:57;43.20;1.00
11132;DHT22;5620;53.570;9.718;2023-04-30T14:35:23;43.50;1.00
11132;DHT22;5620;53.570;9.718;2023-04-30T14:37:48;43.40;1.00
11132;DHT22;5620;53.570;9.718;2023-04-30T14:40:16;43.70;1.00
11132;DHT22;5620;53.570;9.718;2023-04-30T14:42:44;43.90;1.00
11132;DHT22;5620;53.570;9.718;2023-04-30T14:45:09;43.70;1.00
11132;DHT22;5620;53.570;9.718;2023-04-30T14:47:35;44.00;1.00
11132;DHT22;5620;53.570;9.718;2023-04-30T14:50:02;44.50;1.00
11132;DHT22;5620;53.570;9.718;2023-04-30T14:52:29;44.50;1.00
11132;DHT22;5620;53.570;9.718;2023-04-30T14:54:54;44.30;1.00
11132;DHT22;5620;53.570;9.718;2023-04-30T14:57:20;44.80;1.00
11132;DHT22;5620;53.570;9.718;2023-04-30T14:59:47;45.00;1.00
11132;DHT22;5620;53.570;9.718;2023-04-30T15:02:15;45.00;1.00
11132;DHT22;5620;53.570;9.718;2023-04-30T15:04:44;45.20;1.00
11132;DHT22;5620;53.570;9.718;2023-04-30T15:07:11;45.80;1.00
11132;DHT22;5620;53.570;9.718;2023-04-30T15:09:38;45.70;1.00
11132;DHT22;5620;53.570;9.718;2023-04-30T15:12:05;45.40;1.00
11132;DHT22;5620;53.570;9.718;2023-04-30T15:14:31;45.20;1.00
11132;DHT22;5620;53.570;9.718;2023-04-30T15:16:58;45.20;1.00
11132;DHT22;5620;53.570;9.718;2023-04-30T15:19:28;45.40;1.00
11132;DHT22;5620;53.570;9.718;2023-04-30T15:21:55;45.80;1.00
11132;DHT22;5620;53.570;9.718;2023-04-30T15:24:23;45.80;1.00
11132;DHT22;5620;53.570;9.718;2023-04-30T15:26:50;45.20;1.00
11132;DHT22;5620;53.570;9.718;2023-04-30T15:29:16;45.30;1.00
11132;DHT22;5620;53.570;9.718;2023-04-30T15:31:43;45.40;1.00
11132;DHT22;5620;53.570;9.718;2023-04-30T15:34:10;45.40;1.00
11132;DHT22;5620;53.570;9.718;2023-04-30T15:36:39;45.70;1.00
11132;DHT22;5620;53.570;9.718;2023-04-30T15:39:04;46.00;1.00
11132;DHT22;5620;53.570;9.718;2023-04-30T15:41:31;46.10;1.00
11132;DHT22;5620;53.570;9.718;2023-04-30T15:43:57;45.70;1.00
11132;DHT22;5620;53.570;9.718;2023-04-30T15:46:24;44.70;1.00
11132;DHT22;5620;53.570;9.718;2023-04-30T15:48:51;44.40;1.00
11132;DHT22;5620;53.570;9.718;2023-04-30T15:51:16;45.00;1.00
11132;DHT22;5620;53.570;9.718;2023-04-30T15:53:43;45.50;1.00
11132;DHT22;5620;53.570;9.718;2023-04-30T15:56:10;45.60;1.00
11132;DHT22;5620;53.570;9.718;2023-04-30T15:58:36;45.70;1.00
11132;DHT22;5620;53.570;9.718;2023-04-30T16:01:03;46.00;1.00
11132;DHT22;5620;53.570;9.718;2023-04-30T16:03:29;46.50;1.00
11132;DHT22;5620;53.570;9.718;2023-04-30T16:05:55;46.80;1.00
11132;DHT22;5620;53.570;9.718;2023-04-30T16:08:20;46.90;1.00
11132;DHT22;5620;53.570;9.718;2023-04-30T16:10:46;47.00;1.00
11132;DHT22;5620;53.570;9.718;2023-04-30T16:13:13;47.20;1.00
11132;DHT22;5620;53.570;9.718;2023-04-30T16:15:41;47.20;1.00
11132;DHT22;5620;53.570;9.718;2023-04-30T16:18:08;47.40;1.00
11132;DHT22;5620;53.570;9.718;2023-04-30T16:20:34;46.90;1.00
11132;DHT22;5620;53.570;9.718;2023-04-30T16:23:00;46.70;1.00
11132;DHT22;5620;53.570;9.718;2023-04-30T16:25:28;46.60;1.00
11132;DHT22;5620;53.570;9.718;2023-04-30T16:27:55;46.60;1.00
11132;DHT22;5620;53.570;9.718;2023-04-30T16:30:22;46.70;1.00
11132;DHT22;5620;53.570;9.718;2023-04-30T16:32:48;46.90;1.00
11132;DHT22;5620;53.570;9.718;2023-04-30T16:35:15;46.70;1.00
11132;DHT22;5620;53.570;9.718;2023-04-30T16:37:40;46.20;1.00
11132;DHT22;5620;53.570;9.718;2023-04-30T16:40:07;45.90;1.00